Phoenix, AZ (85062)

8:38 PM MST on August 29, 2016 (GMT -0700)
Video West, Inc. AWOS | | Change Station

Elev 1207 ft 33.46 °N, 111.97 °W | Updated 4 seconds ago

Partly Cloudy
Partly Cloudy
94.6 °F
Feels Like 91 °F
N
0.0
Wind Variable Wind from SSE
Gusts 0.0 mph

Today
High -- | Low -- °F
--% Chance of Precip.
Yesterday
High -- | Low -- °F
Precip. -- in
Pressure 29.72 in
Visibility 10.0 miles
Clouds Few 12000 ft
Heat Index 91 °F
Dew Point 43 °F
Humidity 17%
Rainfall 0.00 in
Snow Depth Not available.
6:00 AM 6:56 PM
Waning Crescent, 5% visible
METAR KPHX 300251Z 15005KT 10SM FEW120 37/06 A2978 RMK AO2 SLP063 T03720056 53001
Pressure 29.72 in
Visibility 10.0 miles
Clouds Few 12000 ft
Heat Index 91 °F
Dew Point 43 °F
Humidity 17%
Rainfall 0.00 in
Snow Depth Not available.
6:00 AM 6:56 PM
Waning Crescent, 5% visible
METAR KPHX 300251Z 15005KT 10SM FEW120 37/06 A2978 RMK AO2 SLP063 T03720056 53001

10-Day Weather Forecast

Almanac

Astronomy

Aug. 29, 2016 Rise Set
Actual Time
Civil Twilight
Nautical Twilight
Astronomical Twilight
Moon
Length of Visible Light
Length of Day
Tomorrow will be .
, % of the Moon is Illuminated

Today's Extremes

State Highs State Lows

Community

WunderPhotos

Upload Photos

1,935,782 photos uploaded!

WunderBlog® & News

Nearby

Air Quality

  Air Quality AQ Index Pollutant
Not available.

Snow Depth

Station Depth Elevation

Earthquake Activity

City Distance Mag. Time & Date
Minimum magnitude displayed is 2.5.

Coastal Water Temperatures

Place Temperature

Stations

Nearby Weather Stations

Station Location Temp. Windchill Dew Point Humidity Wind Precip. Elev Updated Type
                   

Watches & Warnings

There are currently no watches in effect.